Rovinj, Croatia
Current Conditions -  °F | °C
As of 8:30 AM on Friday 24 Oct 2014 (Local Time) from LDPL Reporting Station
Few Clouds Few Clouds  
Wind Chill: 54°   Ceiling: Unl
Heat Index: 54°   Visibility: 6mi
Dew Point: 52°   Wind: 3mph
Humidity: 94%   Direction: NA
Pressure: 29.91"   Gusts: NA
Location:  45.09°N, 13.64°E
Report Text: LDPL 240730Z VRB03KT 9999 FEW057 12/11 Q1013 NOSIG
Loading
Personal Weather Stations






























Interactive Weather Map
Tropical Storm Tracking
New forecast layout! Learn more

10-Day Weather Forecast

Advertisements
Track Severe Weather on mobile